Time;durP1;ratioP1;P1;durP2;ratioP2;P2;SDS_P1;SDS_P2;PMS_P1;PMS_P2;Temp;Humidity;BMP_temperature;BMP_pressure;BME280_temperature;BME280_humidity;BME280_pressure;Samples;Min_cycle;Max_cycle;Signal;HPM_P1;HPM_P2
2022/05/29 20:20:09;;;;;;;1.20;1.10;;;24.10;43.00;;;;;;5038402;27;20628;-68
2022/05/29 20:22:34;;;;;;;2.77;1.00;;;24.30;38.20;;;;;;5032627;28;20443;-68
2022/05/29 20:25:00;;;;;;;1.67;0.93;;;24.10;38.20;;;;;;5028674;28;20427;-68
2022/05/29 20:27:25;;;;;;;1.00;1.00;;;24.10;38.20;;;;;;5043836;28;20275;-68
2022/05/29 20:29:51;;;;;;;1.40;1.30;;;24.20;59.10;;;;;;5060766;28;20176;-68
2022/05/29 20:32:17;;;;;;;2.00;1.40;;;24.00;38.60;;;;;;5056911;28;20191;-69
2022/05/29 20:34:43;;;;;;;2.27;1.13;;;23.90;38.70;;;;;;5042968;28;20908;-69
2022/05/29 20:37:09;;;;;;;1.43;1.10;;;24.70;39.70;;;;;;5059218;28;20542;-65
2022/05/29 20:39:34;;;;;;;1.77;1.20;;;24.70;40.30;;;;;;5043077;28;20236;-67
2022/05/29 20:42:00;;;;;;;3.13;0.90;;;24.80;41.10;;;;;;5055636;28;20267;-66
2022/05/29 20:44:29;;;;;;;5.80;1.17;;;23.60;40.40;;;;;;5060725;28;20217;-66
2022/05/29 20:49:40;;;;;;;2.60;1.40;;;24.80;41.40;;;;;;5062620;28;20445;-67
2022/05/29 20:52:08;;;;;;;1.33;1.00;;;23.70;41.20;;;;;;5062519;28;20430;-70
2022/05/29 20:54:35;;;;;;;1.50;1.40;;;23.50;40.90;;;;;;5062189;28;20555;-71
2022/05/29 20:57:01;;;;;;;2.23;1.27;;;23.80;41.20;;;;;;5049120;28;20435;-69
2022/05/29 20:59:27;;;;;;;2.10;1.80;;;23.70;40.80;;;;;;5049887;28;20519;-70
2022/05/29 21:01:53;;;;;;;0.90;0.90;;;23.70;41.00;;;;;;5047257;28;20546;-68
2022/05/29 21:04:21;;;;;;;1.27;0.80;;;23.70;41.70;;;;;;5033752;28;20869;-68
2022/05/29 21:06:47;;;;;;;0.70;0.70;;;24.30;42.30;;;;;;5042061;28;20177;-68
2022/05/29 21:09:12;;;;;;;0.80;0.80;;;23.70;42.10;;;;;;5042146;28;20502;-68
2022/05/29 21:11:38;;;;;;;0.70;0.60;;;23.60;41.80;;;;;;5041987;28;20268;-68
2022/05/29 21:14:06;;;;;;;2.97;0.80;;;23.70;41.70;;;;;;5050360;28;20537;-68
2022/05/29 21:16:32;;;;;;;0.87;0.83;;;23.50;41.50;;;;;;5041028;28;20215;-68
2022/05/29 21:18:57;;;;;;;1.03;1.03;;;23.60;41.70;;;;;;5041903;28;20470;-68
2022/05/29 21:21:26;;;;;;;1.57;1.13;;;23.50;41.60;;;;;;5042105;28;20272;-68
2022/05/29 21:23:56;;;;;;;1.27;0.90;;;23.50;41.50;;;;;;5042510;28;20173;-67
2022/05/29 21:26:21;;;;;;;0.80;0.80;;;23.50;42.00;;;;;;5062257;28;20416;-67
2022/05/29 21:28:47;;;;;;;0.60;0.60;;;23.50;42.10;;;;;;5062091;28;20423;-68
2022/05/29 21:31:14;;;;;;;0.80;0.60;;;23.40;41.80;;;;;;5050303;28;20200;-68
2022/05/29 21:33:43;;;;;;;0.63;0.63;;;23.40;41.90;;;;;;5048394;28;20423;-68
2022/05/29 21:36:23;;;;;;;0.67;0.67;;;23.40;41.90;;;;;;5032181;28;20476;-68
2022/05/29 21:38:49;;;;;;;0.60;0.60;;;23.30;41.90;;;;;;5022021;28;20532;-68
2022/05/29 21:41:15;;;;;;;0.70;0.70;;;23.30;42.00;;;;;;5028473;28;20527;-68
2022/05/29 21:43:40;;;;;;;0.80;0.80;;;23.30;42.20;;;;;;5032967;28;20243;-67
2022/05/29 21:46:08;;;;;;;1.10;1.00;;;23.40;42.10;;;;;;5048198;28;20217;-68
2022/05/29 21:48:34;;;;;;;0.70;0.60;;;23.50;42.00;;;;;;5048996;28;20188;-67
2022/05/29 21:51:09;;;;;;;0.50;0.50;;;23.20;41.90;;;;;;5048778;28;20439;-68
2022/05/29 21:53:34;;;;;;;0.67;0.67;;;23.00;41.80;;;;;;5048432;28;20678;-67
2022/05/29 21:56:02;;;;;;;0.70;0.60;;;23.20;42.50;;;;;;5048395;28;20411;-68
2022/05/29 21:58:27;;;;;;;0.80;0.80;;;23.30;42.00;;;;;;5031350;28;20684;-68
2022/05/29 22:00:53;;;;;;;0.80;0.80;;;23.10;42.10;;;;;;5026877;28;20508;-68
2022/05/29 22:03:19;;;;;;;0.80;0.80;;;22.80;41.90;;;;;;5027819;28;20291;-68
2022/05/29 22:05:45;;;;;;;0.87;0.87;;;23.20;42.10;;;;;;5027621;28;20178;-68
2022/05/29 22:08:11;;;;;;;0.80;0.60;;;23.30;42.10;;;;;;5028231;28;20497;-68
2022/05/29 22:10:36;;;;;;;1.20;1.00;;;23.00;42.10;;;;;;5028825;28;20372;-68
2022/05/29 22:13:02;;;;;;;0.60;0.53;;;23.90;42.40;;;;;;5048480;28;20430;-68
2022/05/29 22:15:28;;;;;;;0.77;0.77;;;23.20;42.40;;;;;;5044063;28;20204;-67
2022/05/29 22:17:53;;;;;;;1.00;0.60;;;23.20;42.00;;;;;;5027989;28;20188;-68
2022/05/29 22:20:19;;;;;;;0.80;0.80;;;23.20;42.00;;;;;;5028410;28;20204;-68
2022/05/29 22:22:46;;;;;;;0.83;0.83;;;23.20;41.60;;;;;;5028271;28;20204;-68
2022/05/29 22:25:14;;;;;;;0.60;0.60;;;23.20;42.20;;;;;;5032198;28;20832;-68
2022/05/29 22:27:40;;;;;;;1.77;0.73;;;23.20;41.80;;;;;;5046909;28;20438;-68
2022/05/29 22:30:07;;;;;;;1.73;1.00;;;23.20;41.80;;;;;;5047989;28;20530;-68
2022/05/29 22:32:40;;;;;;;0.70;0.70;;;23.20;41.80;;;;;;5047882;28;20982;-68
2022/05/29 22:35:12;;;;;;;0.60;0.60;;;23.10;42.00;;;;;;5047889;28;20414;-68
2022/05/29 22:37:39;;;;;;;0.70;0.70;;;23.20;41.00;;;;;;5028185;28;20419;-68
2022/05/29 22:40:11;;;;;;;0.67;0.67;;;22.80;41.70;;;;;;5029123;28;20481;-68
2022/05/29 22:42:37;;;;;;;0.70;0.70;;;23.10;41.70;;;;;;5026135;28;20427;-68
2022/05/29 22:45:04;;;;;;;0.70;0.70;;;23.10;42.00;;;;;;5027510;28;20432;-67
2022/05/29 22:47:57;;;;;;;0.73;0.73;;;23.10;41.70;;;;;;5026959;28;20181;-68
2022/05/29 22:50:47;;;;;;;1.20;0.90;;;23.10;41.00;;;;;;5027194;28;20464;-68
2022/05/29 22:53:36;;;;;;;0.50;0.50;;;23.10;42.30;;;;;;5032344;28;20424;-68
2022/05/29 22:56:01;;;;;;;0.60;0.60;;;23.30;42.50;;;;;;5027441;28;20542;-68
2022/05/29 22:58:27;;;;;;;1.73;0.70;;;23.10;42.10;;;;;;5027216;28;20486;-68
2022/05/29 23:00:53;;;;;;;0.60;0.60;;;23.10;41.90;;;;;;5027072;28;20292;-67
2022/05/29 23:03:37;;;;;;;0.70;0.70;;;23.10;42.20;;;;;;5027334;28;20423;-68
2022/05/29 23:06:03;;;;;;;0.73;0.73;;;23.10;41.20;;;;;;5027127;28;20423;-68
2022/05/29 23:08:29;;;;;;;1.53;0.60;;;23.10;42.00;;;;;;5026975;28;20519;-68
2022/05/29 23:10:55;;;;;;;2.87;0.70;;;23.10;42.50;;;;;;5027576;28;20900;-67
2022/05/29 23:13:20;;;;;;;1.23;0.90;;;23.30;42.40;;;;;;5027232;28;20412;-68
2022/05/29 23:15:46;;;;;;;0.80;0.77;;;23.30;42.40;;;;;;5029505;28;20207;-68
2022/05/29 23:18:12;;;;;;;0.80;0.80;;;23.70;42.80;;;;;;5026694;28;20205;-67
2022/05/29 23:20:37;;;;;;;0.80;0.80;;;23.00;42.40;;;;;;5026869;28;20193;-68
2022/05/29 23:23:08;;;;;;;1.03;0.67;;;23.00;42.40;;;;;;5027027;28;20471;-67
2022/05/29 23:25:33;;;;;;;0.70;0.70;;;23.10;42.80;;;;;;5028560;28;20192;-68
2022/05/29 23:27:59;;;;;;;0.70;0.70;;;23.00;42.20;;;;;;5027335;28;20744;-67
2022/05/29 23:31:01;;;;;;;1.27;0.73;;;22.70;42.10;;;;;;5026963;28;20715;-68
2022/05/29 23:33:29;;;;;;;0.60;0.53;;;22.90;42.30;;;;;;5026960;28;20180;-68
2022/05/29 23:35:55;;;;;;;0.80;0.80;;;22.90;42.40;;;;;;5026295;28;20416;-68
2022/05/29 23:38:20;;;;;;;0.60;0.60;;;22.90;42.60;;;;;;5026601;28;20462;-68
2022/05/29 23:40:46;;;;;;;0.70;0.70;;;22.90;42.50;;;;;;5026576;28;20216;-68
2022/05/29 23:43:15;;;;;;;0.70;0.70;;;22.90;42.60;;;;;;5026537;28;20540;-68
2022/05/29 23:45:46;;;;;;;0.70;0.70;;;22.90;42.30;;;;;;5028563;28;20183;-68
2022/05/29 23:48:26;;;;;;;0.80;0.73;;;23.00;42.50;;;;;;5026539;28;20432;-68
2022/05/29 23:50:52;;;;;;;0.60;0.60;;;23.00;41.50;;;;;;5026129;28;21061;-68
2022/05/29 23:53:18;;;;;;;0.70;0.70;;;22.90;42.40;;;;;;5028490;28;20444;-68
2022/05/29 23:55:44;;;;;;;0.70;0.60;;;23.00;42.40;;;;;;5026229;28;20548;-68
2022/05/29 23:58:09;;;;;;;0.60;0.60;;;22.90;42.50;;;;;;5026537;28;20512;-68
